sensor_id;sensor_type;location;lat;lon;timestamp;noise_LAeq;noise_LA_min;noise_LA_max;noise_LA01;noise_LA95
69609;Laerm;56815;52.320;4.858;2023-02-03T00:00:08;39.50;36.90;47.92;;
69609;Laerm;56815;52.320;4.858;2023-02-03T00:00:19;40.99;35.99;49.50;;
69609;Laerm;56815;52.320;4.858;2023-02-03T00:00:29;41.88;34.81;52.98;;
69609;Laerm;56815;52.320;4.858;2023-02-03T00:00:50;35.93;33.84;46.63;;
69609;Laerm;56815;52.320;4.858;2023-02-03T00:01:11;36.02;33.43;50.09;;
69609;Laerm;56815;52.320;4.858;2023-02-03T00:01:29;37.34;33.54;49.95;;
69609;Laerm;56815;52.320;4.858;2023-02-03T00:01:45;37.05;34.32;48.64;;
69609;Laerm;56815;52.320;4.858;2023-02-03T00:02:03;35.97;33.84;49.00;;
69609;Laerm;56815;52.320;4.858;2023-02-03T00:02:21;35.90;33.14;46.04;;
69609;Laerm;56815;52.320;4.858;2023-02-03T00:02:38;39.49;34.34;55.15;;
69609;Laerm;56815;52.320;4.858;2023-02-03T00:02:58;35.96;33.42;44.44;;
69609;Laerm;56815;52.320;4.858;2023-02-03T00:03:18;37.81;33.95;46.70;;
69609;Laerm;56815;52.320;4.858;2023-02-03T00:03:34;35.83;33.45;47.92;;
69609;Laerm;56815;52.320;4.858;2023-02-03T00:03:48;36.03;33.72;41.99;;
69609;Laerm;56815;52.320;4.858;2023-02-03T00:04:02;35.90;33.42;45.64;;
69609;Laerm;56815;52.320;4.858;2023-02-03T00:04:16;35.28;32.97;43.64;;
69609;Laerm;56815;52.320;4.858;2023-02-03T00:04:30;34.92;32.78;37.91;;
69609;Laerm;56815;52.320;4.858;2023-02-03T00:04:45;35.32;33.55;42.52;;
69609;Laerm;56815;52.320;4.858;2023-02-03T00:04:56;35.71;33.68;43.13;;
69609;Laerm;56815;52.320;4.858;2023-02-03T00:05:07;35.59;33.52;38.79;;
69609;Laerm;56815;52.320;4.858;2023-02-03T00:05:20;37.40;34.58;51.52;;
69609;Laerm;56815;52.320;4.858;2023-02-03T00:05:32;38.80;34.58;50.28;;
69609;Laerm;56815;52.320;4.858;2023-02-03T00:05:44;36.76;34.31;49.73;;
69609;Laerm;56815;52.320;4.858;2023-02-03T00:05:56;41.05;35.60;50.93;;
69609;Laerm;56815;52.320;4.858;2023-02-03T00:06:08;37.76;34.17;48.34;;
69609;Laerm;56815;52.320;4.858;2023-02-03T00:06:20;36.34;33.65;49.26;;
69609;Laerm;56815;52.320;4.858;2023-02-03T00:06:30;36.23;34.12;47.65;;
69609;Laerm;56815;52.320;4.858;2023-02-03T00:06:42;36.79;34.71;49.12;;
69609;Laerm;56815;52.320;4.858;2023-02-03T00:06:53;35.74;32.95;46.50;;
69609;Laerm;56815;52.320;4.858;2023-02-03T00:07:03;35.27;32.83;43.93;;
69609;Laerm;56815;52.320;4.858;2023-02-03T00:07:14;35.55;33.51;41.81;;
69609;Laerm;56815;52.320;4.858;2023-02-03T00:07:25;36.85;34.53;50.32;;
69609;Laerm;56815;52.320;4.858;2023-02-03T00:07:36;36.77;34.62;49.38;;
69609;Laerm;56815;52.320;4.858;2023-02-03T00:07:48;38.11;36.00;43.86;;
69609;Laerm;56815;52.320;4.858;2023-02-03T00:07:59;36.27;33.66;40.56;;
69609;Laerm;56815;52.320;4.858;2023-02-03T00:08:12;36.29;33.97;44.97;;
69609;Laerm;56815;52.320;4.858;2023-02-03T00:08:23;36.80;34.64;39.25;;
69609;Laerm;56815;52.320;4.858;2023-02-03T00:08:34;36.32;34.12;44.20;;
69609;Laerm;56815;52.320;4.858;2023-02-03T00:08:45;36.17;34.17;38.79;;
69609;Laerm;56815;52.320;4.858;2023-02-03T00:08:55;35.81;33.69;39.57;;
69609;Laerm;56815;52.320;4.858;2023-02-03T00:09:08;35.22;33.07;39.28;;
69609;Laerm;56815;52.320;4.858;2023-02-03T00:09:18;35.86;33.67;44.89;;
69609;Laerm;56815;52.320;4.858;2023-02-03T00:09:29;35.79;33.87;39.27;;
69609;Laerm;56815;52.320;4.858;2023-02-03T00:09:40;36.08;34.07;39.01;;
69609;Laerm;56815;52.320;4.858;2023-02-03T00:09:50;36.77;34.19;47.47;;
69609;Laerm;56815;52.320;4.858;2023-02-03T00:10:00;36.91;34.42;42.27;;
69609;Laerm;56815;52.320;4.858;2023-02-03T00:10:11;44.14;36.62;58.82;;
69609;Laerm;56815;52.320;4.858;2023-02-03T00:10:21;46.10;34.89;67.08;;
69609;Laerm;56815;52.320;4.858;2023-02-03T00:10:33;38.57;34.97;45.80;;
69609;Laerm;56815;52.320;4.858;2023-02-03T00:10:43;38.41;36.25;41.58;;
69609;Laerm;56815;52.320;4.858;2023-02-03T00:10:54;36.55;34.19;39.95;;
69609;Laerm;56815;52.320;4.858;2023-02-03T00:11:04;36.43;34.49;39.85;;
69609;Laerm;56815;52.320;4.858;2023-02-03T00:11:15;38.32;35.41;46.87;;
69609;Laerm;56815;52.320;4.858;2023-02-03T00:11:25;39.29;37.14;47.99;;
69609;Laerm;56815;52.320;4.858;2023-02-03T00:11:36;39.70;36.94;43.62;;
69609;Laerm;56815;52.320;4.858;2023-02-03T00:11:46;39.93;36.73;49.65;;
69609;Laerm;56815;52.320;4.858;2023-02-03T00:11:56;38.93;35.63;53.31;;
69609;Laerm;56815;52.320;4.858;2023-02-03T00:12:07;38.25;34.80;44.46;;
69609;Laerm;56815;52.320;4.858;2023-02-03T00:12:18;42.54;37.90;54.74;;
69609;Laerm;56815;52.320;4.858;2023-02-03T00:12:28;42.49;39.92;48.85;;
69609;Laerm;56815;52.320;4.858;2023-02-03T00:12:39;40.81;36.94;51.52;;
69609;Laerm;56815;52.320;4.858;2023-02-03T00:12:51;37.34;34.70;40.77;;
69609;Laerm;56815;52.320;4.858;2023-02-03T00:13:02;37.03;34.81;47.09;;
69609;Laerm;56815;52.320;4.858;2023-02-03T00:13:13;37.30;35.08;40.06;;
69609;Laerm;56815;52.320;4.858;2023-02-03T00:13:23;35.82;33.50;43.41;;
69609;Laerm;56815;52.320;4.858;2023-02-03T00:13:35;36.30;33.45;52.09;;
69609;Laerm;56815;52.320;4.858;2023-02-03T00:13:45;38.04;34.64;41.04;;
69609;Laerm;56815;52.320;4.858;2023-02-03T00:13:55;37.47;35.53;41.02;;
69609;Laerm;56815;52.320;4.858;2023-02-03T00:14:06;37.17;35.29;40.59;;
69609;Laerm;56815;52.320;4.858;2023-02-03T00:14:17;39.21;36.54;49.50;;
69609;Laerm;56815;52.320;4.858;2023-02-03T00:14:27;40.06;37.52;46.92;;
69609;Laerm;56815;52.320;4.858;2023-02-03T00:14:37;39.09;36.47;49.29;;
69609;Laerm;56815;52.320;4.858;2023-02-03T00:14:47;39.91;37.14;44.01;;
69609;Laerm;56815;52.320;4.858;2023-02-03T00:14:58;40.38;38.17;51.27;;
69609;Laerm;56815;52.320;4.858;2023-02-03T00:15:08;40.89;38.01;45.27;;
69609;Laerm;56815;52.320;4.858;2023-02-03T00:15:18;38.17;34.09;42.22;;
69609;Laerm;56815;52.320;4.858;2023-02-03T00:15:29;36.26;34.24;48.45;;
69609;Laerm;56815;52.320;4.858;2023-02-03T00:15:40;36.16;33.91;47.12;;
69609;Laerm;56815;52.320;4.858;2023-02-03T00:15:50;36.87;33.24;45.48;;
69609;Laerm;56815;52.320;4.858;2023-02-03T00:16:00;40.69;35.98;45.94;;
69609;Laerm;56815;52.320;4.858;2023-02-03T00:16:11;40.20;34.73;45.67;;
69609;Laerm;56815;52.320;4.858;2023-02-03T00:16:21;38.68;35.74;42.13;;
69609;Laerm;56815;52.320;4.858;2023-02-03T00:16:31;38.59;35.95;43.36;;
69609;Laerm;56815;52.320;4.858;2023-02-03T00:16:44;37.11;34.14;49.35;;
69609;Laerm;56815;52.320;4.858;2023-02-03T00:16:54;36.04;34.18;38.81;;
69609;Laerm;56815;52.320;4.858;2023-02-03T00:17:05;36.75;33.32;41.44;;
69609;Laerm;56815;52.320;4.858;2023-02-03T00:17:15;40.74;37.63;44.89;;
69609;Laerm;56815;52.320;4.858;2023-02-03T00:17:26;39.95;35.12;51.01;;
69609;Laerm;56815;52.320;4.858;2023-02-03T00:17:36;36.79;33.98;43.09;;
69609;Laerm;56815;52.320;4.858;2023-02-03T00:17:46;35.97;33.94;39.98;;
69609;Laerm;56815;52.320;4.858;2023-02-03T00:17:56;37.17;35.00;51.43;;
69609;Laerm;56815;52.320;4.858;2023-02-03T00:18:07;35.12;32.59;39.18;;
69609;Laerm;56815;52.320;4.858;2023-02-03T00:18:17;35.69;33.56;47.57;;
69609;Laerm;56815;52.320;4.858;2023-02-03T00:18:28;34.75;32.26;47.55;;
69609;Laerm;56815;52.320;4.858;2023-02-03T00:18:38;34.78;32.63;48.79;;
69609;Laerm;56815;52.320;4.858;2023-02-03T00:18:48;34.66;32.41;41.16;;
69609;Laerm;56815;52.320;4.858;2023-02-03T00:18:58;34.19;32.32;40.31;;
69609;Laerm;56815;52.320;4.858;2023-02-03T00:19:09;34.00;32.24;39.17;;
69609;Laerm;56815;52.320;4.858;2023-02-03T00:19:19;34.34;31.92;41.58;;
69609;Laerm;56815;52.320;4.858;2023-02-03T00:19:29;34.58;32.05;36.72;;
69609;Laerm;56815;52.320;4.858;2023-02-03T00:19:40;35.25;32.91;49.19;;
69609;Laerm;56815;52.320;4.858;2023-02-03T00:19:50;35.83;32.77;49.94;;
69609;Laerm;56815;52.320;4.858;2023-02-03T00:20:00;35.09;32.91;39.50;;
69609;Laerm;56815;52.320;4.858;2023-02-03T00:20:11;34.40;32.27;48.17;;
69609;Laerm;56815;52.320;4.858;2023-02-03T00:20:21;33.77;32.01;39.17;;
69609;Laerm;56815;52.320;4.858;2023-02-03T00:20:31;34.71;32.44;48.44;;
69609;Laerm;56815;52.320;4.858;2023-02-03T00:20:42;34.18;32.20;37.77;;
69609;Laerm;56815;52.320;4.858;2023-02-03T00:20:52;34.03;32.34;40.58;;
69609;Laerm;56815;52.320;4.858;2023-02-03T00:21:02;34.12;32.38;36.39;;
69609;Laerm;56815;52.320;4.858;2023-02-03T00:21:13;34.38;32.02;42.77;;
69609;Laerm;56815;52.320;4.858;2023-02-03T00:21:24;34.74;32.58;48.37;;
69609;Laerm;56815;52.320;4.858;2023-02-03T00:21:34;34.36;31.83;37.17;;
69609;Laerm;56815;52.320;4.858;2023-02-03T00:21:44;34.70;32.69;37.64;;
69609;Laerm;56815;52.320;4.858;2023-02-03T00:21:55;35.59;33.42;48.35;;
69609;Laerm;56815;52.320;4.858;2023-02-03T00:22:05;40.43;34.37;50.90;;
69609;Laerm;56815;52.320;4.858;2023-02-03T00:22:15;36.65;32.49;45.18;;
69609;Laerm;56815;52.320;4.858;2023-02-03T00:22:26;35.91;34.11;38.98;;
69609;Laerm;56815;52.320;4.858;2023-02-03T00:22:36;36.54;33.84;44.92;;
69609;Laerm;56815;52.320;4.858;2023-02-03T00:22:46;36.14;33.29;49.20;;
69609;Laerm;56815;52.320;4.858;2023-02-03T00:23:03;35.77;33.25;44.46;;
69609;Laerm;56815;52.320;4.858;2023-02-03T00:23:14;38.26;34.52;46.27;;
69609;Laerm;56815;52.320;4.858;2023-02-03T00:23:24;39.72;36.74;42.73;;
69609;Laerm;56815;52.320;4.858;2023-02-03T00:23:35;37.11;33.20;45.53;;
69609;Laerm;56815;52.320;4.858;2023-02-03T00:23:45;35.47;33.11;48.52;;
69609;Laerm;56815;52.320;4.858;2023-02-03T00:23:55;35.02;32.75;39.52;;
69609;Laerm;56815;52.320;4.858;2023-02-03T00:24:06;35.83;33.37;38.82;;
69609;Laerm;56815;52.320;4.858;2023-02-03T00:24:16;36.89;35.01;39.86;;
69609;Laerm;56815;52.320;4.858;2023-02-03T00:24:29;36.28;33.45;50.33;;
69609;Laerm;56815;52.320;4.858;2023-02-03T00:24:39;36.08;34.07;40.35;;
69609;Laerm;56815;52.320;4.858;2023-02-03T00:24:49;36.19;33.41;48.47;;
69609;Laerm;56815;52.320;4.858;2023-02-03T00:25:00;35.69;33.66;38.64;;
69609;Laerm;56815;52.320;4.858;2023-02-03T00:25:10;35.15;33.10;37.33;;
69609;Laerm;56815;52.320;4.858;2023-02-03T00:25:20;35.65;33.76;46.99;;
69609;Laerm;56815;52.320;4.858;2023-02-03T00:25:31;35.14;32.85;42.47;;
69609;Laerm;56815;52.320;4.858;2023-02-03T00:25:41;34.28;32.63;37.06;;
69609;Laerm;56815;52.320;4.858;2023-02-03T00:25:52;35.36;32.87;40.17;;
69609;Laerm;56815;52.320;4.858;2023-02-03T00:26:09;35.54;33.74;39.92;;
69609;Laerm;56815;52.320;4.858;2023-02-03T00:26:20;34.87;32.49;45.20;;
69609;Laerm;56815;52.320;4.858;2023-02-03T00:26:30;36.25;33.62;39.30;;
69609;Laerm;56815;52.320;4.858;2023-02-03T00:26:41;35.87;33.26;48.61;;
69609;Laerm;56815;52.320;4.858;2023-02-03T00:26:51;34.87;32.94;45.11;;
69609;Laerm;56815;52.320;4.858;2023-02-03T00:27:02;34.84;32.81;43.29;;
69609;Laerm;56815;52.320;4.858;2023-02-03T00:27:12;34.68;32.89;38.92;;
69609;Laerm;56815;52.320;4.858;2023-02-03T00:27:23;36.14;32.44;39.97;;
69609;Laerm;56815;52.320;4.858;2023-02-03T00:27:33;33.64;31.63;46.80;;
69609;Laerm;56815;52.320;4.858;2023-02-03T00:27:44;34.15;31.58;43.12;;
69609;Laerm;56815;52.320;4.858;2023-02-03T00:27:54;34.09;31.59;49.60;;
69609;Laerm;56815;52.320;4.858;2023-02-03T00:28:04;33.68;31.76;40.13;;
69609;Laerm;56815;52.320;4.858;2023-02-03T00:28:14;34.44;32.02;46.49;;
69609;Laerm;56815;52.320;4.858;2023-02-03T00:28:25;34.47;32.69;45.77;;
69609;Laerm;56815;52.320;4.858;2023-02-03T00:28:38;35.00;31.76;38.92;;
69609;Laerm;56815;52.320;4.858;2023-02-03T00:28:48;36.44;33.57;50.46;;
69609;Laerm;56815;52.320;4.858;2023-02-03T00:28:58;35.17;33.11;37.66;;
69609;Laerm;56815;52.320;4.858;2023-02-03T00:29:09;35.98;32.46;40.71;;
69609;Laerm;56815;52.320;4.858;2023-02-03T00:29:20;35.15;32.41;39.92;;
69609;Laerm;56815;52.320;4.858;2023-02-03T00:29:33;33.54;31.74;38.13;;
69609;Laerm;56815;52.320;4.858;2023-02-03T00:29:44;34.24;31.58;49.64;;
69609;Laerm;56815;52.320;4.858;2023-02-03T00:29:54;35.13;32.02;50.12;;
69609;Laerm;56815;52.320;4.858;2023-02-03T00:30:04;35.44;33.32;41.87;;
69609;Laerm;56815;52.320;4.858;2023-02-03T00:30:15;36.94;33.31;41.10;;
69609;Laerm;56815;52.320;4.858;2023-02-03T00:30:25;34.41;31.66;48.95;;
69609;Laerm;56815;52.320;4.858;2023-02-03T00:30:35;36.40;32.38;46.47;;
69609;Laerm;56815;52.320;4.858;2023-02-03T00:30:46;33.88;31.86;37.29;;
69609;Laerm;56815;52.320;4.858;2023-02-03T00:30:56;33.75;32.05;38.24;;
69609;Laerm;56815;52.320;4.858;2023-02-03T00:31:13;33.40;31.33;41.95;;
69609;Laerm;56815;52.320;4.858;2023-02-03T00:31:23;33.77;31.58;42.36;;
69609;Laerm;56815;52.320;4.858;2023-02-03T00:31:34;34.23;32.24;43.47;;
69609;Laerm;56815;52.320;4.858;2023-02-03T00:31:44;35.46;32.64;47.93;;
69609;Laerm;56815;52.320;4.858;2023-02-03T00:31:54;34.56;31.94;39.10;;
69609;Laerm;56815;52.320;4.858;2023-02-03T00:32:05;35.75;32.69;48.14;;
69609;Laerm;56815;52.320;4.858;2023-02-03T00:32:15;34.80;32.66;46.32;;
69609;Laerm;56815;52.320;4.858;2023-02-03T00:32:25;35.15;32.60;41.51;;
69609;Laerm;56815;52.320;4.858;2023-02-03T00:32:35;35.09;33.06;37.78;;
69609;Laerm;56815;52.320;4.858;2023-02-03T00:32:46;34.56;32.42;42.48;;
69609;Laerm;56815;52.320;4.858;2023-02-03T00:32:56;35.18;32.68;49.15;;
69609;Laerm;56815;52.320;4.858;2023-02-03T00:33:06;34.72;32.79;38.53;;
69609;Laerm;56815;52.320;4.858;2023-02-03T00:33:16;35.68;33.32;46.98;;
69609;Laerm;56815;52.320;4.858;2023-02-03T00:33:27;35.22;32.35;40.90;;
69609;Laerm;56815;52.320;4.858;2023-02-03T00:33:37;35.37;31.89;39.00;;
69609;Laerm;56815;52.320;4.858;2023-02-03T00:33:52;34.06;32.35;40.18;;
69609;Laerm;56815;52.320;4.858;2023-02-03T00:34:02;33.69;31.88;41.60;;
69609;Laerm;56815;52.320;4.858;2023-02-03T00:34:13;34.30;32.15;37.21;;
69609;Laerm;56815;52.320;4.858;2023-02-03T00:34:26;35.03;32.87;40.18;;
69609;Laerm;56815;52.320;4.858;2023-02-03T00:34:36;35.55;32.72;50.95;;
69609;Laerm;56815;52.320;4.858;2023-02-03T00:34:47;35.76;33.56;38.89;;
69609;Laerm;56815;52.320;4.858;2023-02-03T00:34:57;36.74;33.86;50.24;;
69609;Laerm;56815;52.320;4.858;2023-02-03T00:35:07;36.05;34.12;41.28;;
69609;Laerm;56815;52.320;4.858;2023-02-03T00:35:18;37.93;34.35;48.98;;
69609;Laerm;56815;52.320;4.858;2023-02-03T00:35:28;38.86;36.25;44.65;;
69609;Laerm;56815;52.320;4.858;2023-02-03T00:35:38;38.07;34.16;49.73;;
69609;Laerm;56815;52.320;4.858;2023-02-03T00:35:49;40.44;34.18;57.55;;
69609;Laerm;56815;52.320;4.858;2023-02-03T00:36:05;37.02;34.64;47.38;;
69609;Laerm;56815;52.320;4.858;2023-02-03T00:36:16;36.09;33.00;44.04;;
69609;Laerm;56815;52.320;4.858;2023-02-03T00:36:26;35.29;32.88;47.98;;
69609;Laerm;56815;52.320;4.858;2023-02-03T00:36:36;35.10;32.68;48.21;;
69609;Laerm;56815;52.320;4.858;2023-02-03T00:36:47;35.72;33.08;50.33;;
69609;Laerm;56815;52.320;4.858;2023-02-03T00:36:57;35.49;32.40;46.81;;
69609;Laerm;56815;52.320;4.858;2023-02-03T00:37:07;35.85;33.64;39.25;;
69609;Laerm;56815;52.320;4.858;2023-02-03T00:37:17;38.02;34.43;44.27;;
69609;Laerm;56815;52.320;4.858;2023-02-03T00:37:28;37.52;34.87;51.82;;
69609;Laerm;56815;52.320;4.858;2023-02-03T00:37:38;36.11;33.36;46.31;;
69609;Laerm;56815;52.320;4.858;2023-02-03T00:37:55;34.96;32.96;42.68;;
69609;Laerm;56815;52.320;4.858;2023-02-03T00:38:05;34.49;32.21;44.01;;
69609;Laerm;56815;52.320;4.858;2023-02-03T00:38:16;35.51;33.35;40.49;;
69609;Laerm;56815;52.320;4.858;2023-02-03T00:38:26;35.94;33.73;39.02;;
69609;Laerm;56815;52.320;4.858;2023-02-03T00:38:37;35.95;33.11;39.23;;
69609;Laerm;56815;52.320;4.858;2023-02-03T00:38:47;35.45;33.17;39.61;;
69609;Laerm;56815;52.320;4.858;2023-02-03T00:38:59;38.18;34.10;49.81;;
69609;Laerm;56815;52.320;4.858;2023-02-03T00:39:09;39.19;35.12;44.75;;
69609;Laerm;56815;52.320;4.858;2023-02-03T00:39:20;38.93;35.80;48.90;;
69609;Laerm;56815;52.320;4.858;2023-02-03T00:39:30;37.34;34.93;40.70;;
69609;Laerm;56815;52.320;4.858;2023-02-03T00:39:40;39.04;35.52;42.86;;
69609;Laerm;56815;52.320;4.858;2023-02-03T00:39:51;40.10;36.80;45.74;;
69609;Laerm;56815;52.320;4.858;2023-02-03T00:40:01;41.96;34.92;49.95;;
69609;Laerm;56815;52.320;4.858;2023-02-03T00:40:12;41.71;34.70;49.20;;
69609;Laerm;56815;52.320;4.858;2023-02-03T00:40:23;35.46;32.98;41.33;;
69609;Laerm;56815;52.320;4.858;2023-02-03T00:40:33;35.00;32.46;38.96;;
69609;Laerm;56815;52.320;4.858;2023-02-03T00:40:50;35.32;33.01;47.33;;
69609;Laerm;56815;52.320;4.858;2023-02-03T00:41:00;35.45;33.07;44.64;;
69609;Laerm;56815;52.320;4.858;2023-02-03T00:41:11;37.09;35.17;41.96;;
69609;Laerm;56815;52.320;4.858;2023-02-03T00:41:21;37.40;34.83;49.06;;
69609;Laerm;56815;52.320;4.858;2023-02-03T00:41:32;37.43;34.68;41.56;;
69609;Laerm;56815;52.320;4.858;2023-02-03T00:41:42;36.84;34.54;42.21;;
69609;Laerm;56815;52.320;4.858;2023-02-03T00:41:52;43.19;35.59;49.85;;
69609;Laerm;56815;52.320;4.858;2023-02-03T00:42:03;37.70;34.58;42.15;;
69609;Laerm;56815;52.320;4.858;2023-02-03T00:42:14;41.20;34.85;54.54;;
69609;Laerm;56815;52.320;4.858;2023-02-03T00:42:24;38.74;35.33;51.92;;
69609;Laerm;56815;52.320;4.858;2023-02-03T00:42:34;40.92;35.50;54.13;;
69609;Laerm;56815;52.320;4.858;2023-02-03T00:42:45;37.79;34.65;45.77;;
69609;Laerm;56815;52.320;4.858;2023-02-03T00:42:55;36.43;33.79;39.53;;
69609;Laerm;56815;52.320;4.858;2023-02-03T00:43:05;35.00;33.05;44.20;;
69609;Laerm;56815;52.320;4.858;2023-02-03T00:43:15;35.03;32.15;47.37;;
69609;Laerm;56815;52.320;4.858;2023-02-03T00:43:26;34.17;32.28;37.41;;
69609;Laerm;56815;52.320;4.858;2023-02-03T00:43:36;34.56;32.34;41.47;;
69609;Laerm;56815;52.320;4.858;2023-02-03T00:43:47;34.91;33.03;36.94;;
69609;Laerm;56815;52.320;4.858;2023-02-03T00:43:57;36.15;33.48;52.27;;
69609;Laerm;56815;52.320;4.858;2023-02-03T00:44:07;36.82;34.48;40.29;;
69609;Laerm;56815;52.320;4.858;2023-02-03T00:44:17;36.38;33.76;51.36;;
69609;Laerm;56815;52.320;4.858;2023-02-03T00:44:28;36.09;33.92;40.66;;
69609;Laerm;56815;52.320;4.858;2023-02-03T00:44:38;36.92;34.66;39.34;;
69609;Laerm;56815;52.320;4.858;2023-02-03T00:44:48;36.56;34.09;51.27;;
69609;Laerm;56815;52.320;4.858;2023-02-03T00:44:59;35.31;32.75;49.34;;
69609;Laerm;56815;52.320;4.858;2023-02-03T00:45:09;36.16;33.75;40.41;;
69609;Laerm;56815;52.320;4.858;2023-02-03T00:45:19;40.38;36.64;46.24;;
69609;Laerm;56815;52.320;4.858;2023-02-03T00:45:29;35.47;32.84;38.15;;
69609;Laerm;56815;52.320;4.858;2023-02-03T00:45:39;35.07;32.38;44.18;;
69609;Laerm;56815;52.320;4.858;2023-02-03T00:45:50;35.34;33.15;39.99;;
69609;Laerm;56815;52.320;4.858;2023-02-03T00:46:00;35.14;33.29;40.87;;
69609;Laerm;56815;52.320;4.858;2023-02-03T00:46:10;36.53;34.04;47.58;;
69609;Laerm;56815;52.320;4.858;2023-02-03T00:46:21;35.78;33.59;39.02;;
69609;Laerm;56815;52.320;4.858;2023-02-03T00:46:31;36.63;34.24;40.26;;
69609;Laerm;56815;52.320;4.858;2023-02-03T00:46:41;36.50;33.69;50.31;;
69609;Laerm;56815;52.320;4.858;2023-02-03T00:46:51;35.27;33.52;38.31;;
69609;Laerm;56815;52.320;4.858;2023-02-03T00:47:02;35.41;33.48;40.77;;
69609;Laerm;56815;52.320;4.858;2023-02-03T00:47:12;35.37;33.39;40.17;;
69609;Laerm;56815;52.320;4.858;2023-02-03T00:47:22;35.52;33.33;45.72;;
69609;Laerm;56815;52.320;4.858;2023-02-03T00:47:33;35.72;33.29;45.80;;
69609;Laerm;56815;52.320;4.858;2023-02-03T00:47:43;35.62;33.53;40.73;;
69609;Laerm;56815;52.320;4.858;2023-02-03T00:47:53;36.38;34.14;46.92;;
69609;Laerm;56815;52.320;4.858;2023-02-03T00:48:03;38.24;33.79;42.82;;
69609;Laerm;56815;52.320;4.858;2023-02-03T00:48:15;44.55;36.38;59.84;;
69609;Laerm;56815;52.320;4.858;2023-02-03T00:48:25;36.59;34.29;45.23;;
69609;Laerm;56815;52.320;4.858;2023-02-03T00:48:35;37.15;34.77;41.51;;
69609;Laerm;56815;52.320;4.858;2023-02-03T00:48:45;39.43;34.68;49.80;;
69609;Laerm;56815;52.320;4.858;2023-02-03T00:48:56;36.86;34.35;44.79;;
69609;Laerm;56815;52.320;4.858;2023-02-03T00:49:06;36.35;33.62;40.58;;
69609;Laerm;56815;52.320;4.858;2023-02-03T00:49:16;35.66;32.90;39.56;;
69609;Laerm;56815;52.320;4.858;2023-02-03T00:49:27;35.76;33.23;40.20;;
69609;Laerm;56815;52.320;4.858;2023-02-03T00:49:37;36.23;33.93;43.05;;
69609;Laerm;56815;52.320;4.858;2023-02-03T00:49:47;35.98;33.23;46.30;;
69609;Laerm;56815;52.320;4.858;2023-02-03T00:49:59;35.88;33.04;39.36;;
69609;Laerm;56815;52.320;4.858;2023-02-03T00:50:09;35.87;33.44;37.76;;
69609;Laerm;56815;52.320;4.858;2023-02-03T00:50:20;35.49;33.08;38.54;;
69609;Laerm;56815;52.320;4.858;2023-02-03T00:50:30;35.70;33.44;47.42;;
69609;Laerm;56815;52.320;4.858;2023-02-03T00:50:40;37.94;34.66;47.06;;
69609;Laerm;56815;52.320;4.858;2023-02-03T00:50:50;36.44;34.30;40.65;;
69609;Laerm;56815;52.320;4.858;2023-02-03T00:51:01;36.33;33.90;41.66;;
69609;Laerm;56815;52.320;4.858;2023-02-03T00:51:11;35.94;33.54;39.64;;
69609;Laerm;56815;52.320;4.858;2023-02-03T00:51:21;34.74;32.55;41.46;;
69609;Laerm;56815;52.320;4.858;2023-02-03T00:51:32;34.56;32.27;41.29;;
69609;Laerm;56815;52.320;4.858;2023-02-03T00:51:43;34.68;32.60;39.44;;
69609;Laerm;56815;52.320;4.858;2023-02-03T00:51:53;35.55;32.37;48.91;;
69609;Laerm;56815;52.320;4.858;2023-02-03T00:52:03;35.15;33.11;39.60;;
69609;Laerm;56815;52.320;4.858;2023-02-03T00:52:13;35.65;33.40;49.61;;
69609;Laerm;56815;52.320;4.858;2023-02-03T00:52:24;34.93;32.86;38.59;;
69609;Laerm;56815;52.320;4.858;2023-02-03T00:52:34;35.86;33.81;38.82;;
69609;Laerm;56815;52.320;4.858;2023-02-03T00:52:44;36.42;33.81;39.65;;
69609;Laerm;56815;52.320;4.858;2023-02-03T00:52:55;36.31;34.20;45.36;;
69609;Laerm;56815;52.320;4.858;2023-02-03T00:53:05;35.44;33.05;49.34;;
69609;Laerm;56815;52.320;4.858;2023-02-03T00:53:15;34.34;32.13;43.39;;
69609;Laerm;56815;52.320;4.858;2023-02-03T00:53:26;35.30;32.81;39.02;;
69609;Laerm;56815;52.320;4.858;2023-02-03T00:53:36;37.81;34.51;45.31;;
69609;Laerm;56815;52.320;4.858;2023-02-03T00:53:47;37.54;34.33;50.17;;
69609;Laerm;56815;52.320;4.858;2023-02-03T00:53:57;36.58;33.53;48.41;;
69609;Laerm;56815;52.320;4.858;2023-02-03T00:54:07;43.78;33.85;51.84;;
69609;Laerm;56815;52.320;4.858;2023-02-03T00:54:17;43.12;34.37;57.16;;
69609;Laerm;56815;52.320;4.858;2023-02-03T00:54:28;35.65;32.85;48.64;;
69609;Laerm;56815;52.320;4.858;2023-02-03T00:54:38;35.18;32.56;43.90;;
69609;Laerm;56815;52.320;4.858;2023-02-03T00:54:48;35.56;32.70;48.44;;
69609;Laerm;56815;52.320;4.858;2023-02-03T00:54:58;35.98;33.60;40.66;;
69609;Laerm;56815;52.320;4.858;2023-02-03T00:55:09;35.01;33.03;40.57;;
69609;Laerm;56815;52.320;4.858;2023-02-03T00:55:19;35.20;32.62;47.09;;
69609;Laerm;56815;52.320;4.858;2023-02-03T00:55:29;36.33;33.66;44.56;;
69609;Laerm;56815;52.320;4.858;2023-02-03T00:55:41;35.32;33.26;45.77;;
69609;Laerm;56815;52.320;4.858;2023-02-03T00:55:51;36.15;33.55;48.37;;
69609;Laerm;56815;52.320;4.858;2023-02-03T00:56:02;35.72;33.62;44.50;;
69609;Laerm;56815;52.320;4.858;2023-02-03T00:56:12;35.31;33.32;46.93;;
69609;Laerm;56815;52.320;4.858;2023-02-03T00:56:23;34.55;32.62;41.00;;
69609;Laerm;56815;52.320;4.858;2023-02-03T00:56:33;34.47;32.44;43.93;;
69609;Laerm;56815;52.320;4.858;2023-02-03T00:56:43;35.53;33.48;39.65;;
69609;Laerm;56815;52.320;4.858;2023-02-03T00:56:54;35.38;32.91;46.17;;
69609;Laerm;56815;52.320;4.858;2023-02-03T00:57:04;35.63;33.03;43.23;;
69609;Laerm;56815;52.320;4.858;2023-02-03T00:57:14;36.60;34.37;42.67;;
69609;Laerm;56815;52.320;4.858;2023-02-03T00:57:24;37.72;34.44;44.85;;
69609;Laerm;56815;52.320;4.858;2023-02-03T00:57:35;35.26;32.40;45.70;;
69609;Laerm;56815;52.320;4.858;2023-02-03T00:57:45;36.13;33.37;48.08;;
69609;Laerm;56815;52.320;4.858;2023-02-03T00:57:55;35.59;33.64;40.33;;
69609;Laerm;56815;52.320;4.858;2023-02-03T00:58:06;36.61;34.31;49.45;;
69609;Laerm;56815;52.320;4.858;2023-02-03T00:58:16;36.74;34.13;39.93;;
69609;Laerm;56815;52.320;4.858;2023-02-03T00:58:26;40.92;37.49;44.51;;
69609;Laerm;56815;52.320;4.858;2023-02-03T00:58:37;39.61;35.44;44.20;;
69609;Laerm;56815;52.320;4.858;2023-02-03T00:58:48;37.53;35.69;40.95;;
69609;Laerm;56815;52.320;4.858;2023-02-03T00:58:58;40.31;36.65;50.84;;
69609;Laerm;56815;52.320;4.858;2023-02-03T00:59:08;38.57;35.01;47.47;;
69609;Laerm;56815;52.320;4.858;2023-02-03T00:59:19;36.98;35.10;41.64;;
69609;Laerm;56815;52.320;4.858;2023-02-03T00:59:29;38.30;35.14;51.65;;
69609;Laerm;56815;52.320;4.858;2023-02-03T00:59:39;44.21;36.88;53.27;;
69609;Laerm;56815;52.320;4.858;2023-02-03T00:59:50;39.43;35.81;46.19;;
69609;Laerm;56815;52.320;4.858;2023-02-03T01:00:00;36.77;34.15;44.08;;
69609;Laerm;56815;52.320;4.858;2023-02-03T01:00:10;36.13;34.01;42.38;;
69609;Laerm;56815;52.320;4.858;2023-02-03T01:00:21;35.64;34.00;40.59;;
69609;Laerm;56815;52.320;4.858;2023-02-03T01:00:31;38.94;33.11;52.82;;
69609;Laerm;56815;52.320;4.858;2023-02-03T01:00:44;35.28;33.16;46.62;;
69609;Laerm;56815;52.320;4.858;2023-02-03T01:00:58;35.13;33.12;37.95;;
69609;Laerm;56815;52.320;4.858;2023-02-03T01:01:10;35.05;33.15;38.45;;
69609;Laerm;56815;52.320;4.858;2023-02-03T01:01:23;35.50;33.56;42.07;;